Terminal Aerodrome Forecast
Issued by NWS Paducah, KY

Home | Current Version | Previous Version | Text Only | Print | Product List | Glossary Off
Versions: 1 2 3 4 5 6 7 8 9 10 11 12 13 14

673
FTUS43 KPAH 060520
TAFPAH
TAF
KPAH 060520Z 0606/0706 VRB03KT P6SM SCT070
     FM061400 32006KT P6SM SKC
     FM062000 32007KT P6SM BKN100
     FM070100 VRB03KT P6SM SCT100=

USA.gov is the U.S. government's official web portal to all federal, state and local government web resources and services.